Time;durP1;ratioP1;P1;durP2;ratioP2;P2;SDS_P1;SDS_P2;PMS_P1;PMS_P2;Temp;Humidity;BMP_temperature;BMP_pressure;BME280_temperature;BME280_humidity;BME280_pressure;Samples;Min_cycle;Max_cycle;Signal;HPM_P1;HPM_P2
2022/11/30 00:00:18;;;;;;;29.87;15.73;;;2.80;99.90;;;;;;6303034;22;20408;-80
2022/11/30 00:02:45;;;;;;;32.20;15.83;;;2.90;99.90;;;;;;6303491;22;20415;-79
2022/11/30 00:05:12;;;;;;;33.57;17.27;;;2.80;99.90;;;;;;6302563;22;20527;-80
2022/11/30 00:07:39;;;;;;;35.50;15.80;;;2.80;99.90;;;;;;6303715;22;20454;-79
2022/11/30 00:10:09;;;;;;;29.50;14.33;;;2.90;99.90;;;;;;6303589;22;20438;-78
2022/11/30 00:12:35;;;;;;;29.50;14.30;;;3.00;99.90;;;;;;6308855;22;20433;-81
2022/11/30 00:15:03;;;;;;;29.83;14.63;;;2.90;99.90;;;;;;6308298;22;20404;-79
2022/11/30 00:17:29;;;;;;;26.00;12.67;;;2.90;99.90;;;;;;6305350;22;20487;-79
2022/11/30 00:19:56;;;;;;;34.47;16.97;;;2.90;99.90;;;;;;6307551;22;20488;-79
2022/11/30 00:22:23;;;;;;;24.17;13.87;;;4.20;99.90;;;;;;6306600;22;20412;-78
2022/11/30 00:24:50;;;;;;;28.70;15.60;;;2.90;99.90;;;;;;6322496;22;20818;-78
2022/11/30 00:27:18;;;;;;;27.27;15.07;;;2.80;99.90;;;;;;6307543;22;20400;-78
2022/11/30 00:29:45;;;;;;;29.87;17.53;;;3.20;99.90;;;;;;6303014;22;21080;-80
2022/11/30 00:32:12;;;;;;;32.60;16.87;;;3.40;99.90;;;;;;6302386;22;20439;-78
2022/11/30 00:34:38;;;;;;;34.60;18.00;;;2.50;99.90;;;;;;6302710;22;20428;-78
2022/11/30 00:37:05;;;;;;;33.40;16.47;;;3.00;99.90;;;;;;6302692;22;20771;-78
2022/11/30 00:39:32;;;;;;;28.47;18.27;;;2.80;99.90;;;;;;6302414;22;20869;-79
2022/11/30 00:41:59;;;;;;;30.87;17.43;;;2.70;99.90;;;;;;6302342;22;20443;-79
2022/11/30 00:44:27;;;;;;;31.60;16.30;;;2.80;99.90;;;;;;6302373;22;20746;-79
2022/11/30 00:46:54;;;;;;;32.13;17.60;;;3.10;99.90;;;;;;6302632;22;20491;-78
2022/11/30 00:49:21;;;;;;;33.70;18.90;;;3.20;99.90;;;;;;6302345;22;20432;-78
2022/11/30 00:51:48;;;;;;;32.10;16.97;;;2.90;99.90;;;;;;6302794;22;20817;-78
2022/11/30 00:54:15;;;;;;;38.23;16.13;;;3.00;99.90;;;;;;6303436;22;20436;-78
2022/11/30 00:56:41;;;;;;;30.03;14.70;;;2.90;99.90;;;;;;6302368;22;21020;-79
2022/11/30 00:59:08;;;;;;;31.30;15.77;;;2.80;99.90;;;;;;6302936;22;20415;-79
2022/11/30 01:01:36;;;;;;;29.87;14.97;;;2.90;99.90;;;;;;6302538;22;20447;-79
2022/11/30 01:04:04;;;;;;;28.67;15.10;;;2.90;99.90;;;;;;6303257;22;20463;-80
2022/11/30 01:06:31;;;;;;;25.67;14.90;;;2.90;99.90;;;;;;6302752;22;20448;-79
2022/11/30 01:08:58;;;;;;;29.30;17.80;;;2.80;99.90;;;;;;6302433;22;20539;-79
2022/11/30 01:11:27;;;;;;;30.83;15.87;;;3.00;99.90;;;;;;6302529;22;20769;-80
2022/11/30 01:13:55;;;;;;;24.97;15.50;;;2.90;99.90;;;;;;6301998;22;20426;-81
2022/11/30 01:16:24;;;;;;;30.83;15.63;;;2.90;99.90;;;;;;6302268;22;20823;-78
2022/11/30 01:18:53;;;;;;;31.83;15.67;;;2.90;99.90;;;;;;6302624;22;20717;-80
2022/11/30 01:21:22;;;;;;;41.20;16.70;;;2.90;99.90;;;;;;6302984;22;20435;-81
2022/11/30 01:23:49;;;;;;;38.27;17.40;;;3.10;99.90;;;;;;6302702;22;20511;-81
2022/11/30 01:26:16;;;;;;;33.20;16.30;;;3.00;99.90;;;;;;6303334;22;20563;-78
2022/11/30 01:28:45;;;;;;;29.27;16.57;;;2.90;99.90;;;;;;6302667;22;20716;-79
2022/11/30 01:31:14;;;;;;;33.63;17.23;;;3.00;99.90;;;;;;6302780;22;20431;-78
2022/11/30 01:33:41;;;;;;;34.90;15.53;;;2.80;99.90;;;;;;6305387;22;20503;-77
2022/11/30 01:36:13;;;;;;;31.83;15.97;;;3.20;99.90;;;;;;6305344;22;20454;-78
2022/11/30 01:38:41;;;;;;;30.17;17.60;;;2.80;99.90;;;;;;6302586;22;20475;-80
2022/11/30 01:41:10;;;;;;;32.30;16.00;;;2.70;99.90;;;;;;6303674;22;20479;-78
2022/11/30 01:43:42;;;;;;;32.90;17.30;;;2.80;99.90;;;;;;6302431;22;20443;-79
2022/11/30 01:46:24;;;;;;;34.67;15.87;;;2.80;99.90;;;;;;6304804;22;20833;-78
2022/11/30 01:48:59;;;;;;;34.03;18.00;;;2.80;99.90;;;;;;6305304;22;20495;-78
2022/11/30 01:51:31;;;;;;;31.47;17.77;;;2.80;99.90;;;;;;6304871;22;20443;-78
2022/11/30 01:53:59;;;;;;;33.57;17.10;;;2.80;99.90;;;;;;6303494;22;20475;-78
2022/11/30 01:56:26;;;;;;;37.27;17.00;;;3.20;99.90;;;;;;6303512;22;20491;-78
2022/11/30 01:58:53;;;;;;;33.07;16.37;;;2.70;99.90;;;;;;6302959;22;20436;-78
2022/11/30 02:01:20;;;;;;;35.10;20.00;;;2.70;99.90;;;;;;6302556;22;20404;-78
2022/11/30 02:03:53;;;;;;;29.83;17.13;;;2.80;99.90;;;;;;6301596;22;20417;-78
2022/11/30 02:06:21;;;;;;;33.67;17.03;;;2.80;99.90;;;;;;6302118;22;20431;-79
2022/11/30 02:08:49;;;;;;;36.47;18.00;;;2.90;99.90;;;;;;6301663;22;20483;-80
2022/11/30 02:11:16;;;;;;;35.37;19.30;;;2.90;99.90;;;;;;6301603;22;20519;-79
2022/11/30 02:14:01;;;;;;;33.63;16.90;;;2.80;99.90;;;;;;6301971;22;20496;-79
2022/11/30 02:16:38;;;;;;;31.07;16.10;;;2.90;99.90;;;;;;6301907;22;20458;-79
2022/11/30 02:19:21;;;;;;;38.20;17.00;;;2.70;99.90;;;;;;6301893;22;20726;-78
2022/11/30 02:21:53;;;;;;;36.63;18.80;;;2.80;99.90;;;;;;6302392;22;20476;-78
2022/11/30 02:24:50;;;;;;;43.57;20.80;;;2.90;99.90;;;;;;6301070;22;20531;-79
2022/11/30 02:27:31;;;;;;;32.50;17.67;;;2.80;99.90;;;;;;6301705;22;20419;-78
2022/11/30 02:30:04;;;;;;;38.33;20.00;;;2.70;99.90;;;;;;6302231;22;20381;-77
2022/11/30 02:32:34;;;;;;;33.00;19.63;;;3.00;99.90;;;;;;6302782;22;20424;-79
2022/11/30 02:35:04;;;;;;;35.63;21.37;;;2.70;99.90;;;;;;6302076;22;20424;-79
2022/11/30 02:37:32;;;;;;;44.57;21.50;;;2.80;99.90;;;;;;6301455;22;20488;-79
2022/11/30 02:39:59;;;;;;;41.30;21.00;;;2.80;99.90;;;;;;6301433;22;20936;-79
2022/11/30 02:42:25;;;;;;;42.97;20.50;;;2.80;99.90;;;;;;6300882;22;20491;-81
2022/11/30 02:44:54;;;;;;;40.80;19.33;;;2.60;99.90;;;;;;6301232;22;20435;-79
2022/11/30 02:47:27;;;;;;;40.00;20.33;;;2.60;99.90;;;;;;6302081;22;20446;-80
2022/11/30 02:49:58;;;;;;;40.33;21.83;;;2.80;99.90;;;;;;6308130;22;20432;-80
2022/11/30 02:52:27;;;;;;;46.27;22.57;;;2.60;99.90;;;;;;6317825;22;20439;-78
2022/11/30 02:54:59;;;;;;;38.23;19.53;;;2.60;99.90;;;;;;6305743;22;20428;-79
2022/11/30 02:57:26;;;;;;;35.70;20.73;;;2.90;99.90;;;;;;6304946;22;20869;-79
2022/11/30 02:59:53;;;;;;;46.03;19.27;;;2.90;99.90;;;;;;6304561;22;20491;-79
2022/11/30 03:02:20;;;;;;;38.60;18.33;;;2.70;99.90;;;;;;6305337;22;20465;-79
2022/11/30 03:04:48;;;;;;;37.60;19.60;;;2.70;99.90;;;;;;6304818;22;20495;-79
2022/11/30 03:07:15;;;;;;;35.30;19.00;;;2.60;99.90;;;;;;6304501;22;20436;-79
2022/11/30 03:09:42;;;;;;;37.67;20.77;;;2.60;99.90;;;;;;6304630;22;20493;-79
2022/11/30 03:12:09;;;;;;;38.83;18.80;;;2.70;99.90;;;;;;6305739;22;20424;-80
2022/11/30 03:14:36;;;;;;;30.87;18.07;;;2.70;99.90;;;;;;6305636;22;20491;-79
2022/11/30 03:17:04;;;;;;;31.30;16.50;;;2.70;99.90;;;;;;6318938;22;20407;-79
2022/11/30 03:19:31;;;;;;;30.70;17.20;;;2.70;99.90;;;;;;6306168;22;20412;-80
2022/11/30 03:21:59;;;;;;;38.43;15.30;;;2.70;99.90;;;;;;6307345;22;20438;-79
2022/11/30 03:24:26;;;;;;;34.30;16.50;;;2.90;99.90;;;;;;6305389;22;20463;-79
2022/11/30 03:26:53;;;;;;;38.00;16.90;;;2.70;99.90;;;;;;6304746;22;20896;-80
2022/11/30 03:29:20;;;;;;;30.77;15.20;;;2.50;99.90;;;;;;6304934;22;20408;-80
2022/11/30 03:31:47;;;;;;;29.50;14.80;;;2.60;99.90;;;;;;6303955;22;20412;-79
2022/11/30 03:34:14;;;;;;;31.70;15.63;;;2.50;99.90;;;;;;6304544;22;20503;-78
2022/11/30 03:36:41;;;;;;;29.77;15.97;;;2.60;99.90;;;;;;6304873;22;20436;-80
2022/11/30 03:39:09;;;;;;;27.93;17.93;;;2.50;99.90;;;;;;6304913;22;20644;-79
2022/11/30 03:41:36;;;;;;;30.60;15.93;;;2.50;99.90;;;;;;6305424;22;20416;-79
2022/11/30 03:44:03;;;;;;;36.43;22.33;;;2.60;99.90;;;;;;6305573;22;20453;-82
2022/11/30 03:46:30;;;;;;;31.23;15.80;;;2.60;99.90;;;;;;6304285;22;20527;-82
2022/11/30 03:48:57;;;;;;;38.87;18.50;;;2.50;99.90;;;;;;6303950;22;20827;-79
2022/11/30 03:51:24;;;;;;;37.60;17.40;;;2.50;99.90;;;;;;6305144;22;20908;-80
2022/11/30 03:53:51;;;;;;;33.63;18.00;;;2.90;99.90;;;;;;6304711;22;20961;-79
2022/11/30 03:56:20;;;;;;;34.53;19.30;;;2.40;99.90;;;;;;6304902;22;20503;-79
2022/11/30 03:58:46;;;;;;;26.90;15.07;;;2.40;99.90;;;;;;6304283;22;20415;-78
2022/11/30 04:01:16;;;;;;;28.70;15.43;;;2.60;99.90;;;;;;6304603;22;20444;-79
2022/11/30 04:03:43;;;;;;;34.87;17.03;;;2.40;99.90;;;;;;6304300;22;20956;-80
2022/11/30 04:06:12;;;;;;;33.23;17.00;;;2.70;99.90;;;;;;6304112;22;20887;-79
2022/11/30 04:08:40;;;;;;;31.17;15.60;;;2.70;99.90;;;;;;6303052;22;20446;-81
2022/11/30 04:11:07;;;;;;;34.80;15.80;;;2.60;99.90;;;;;;6302856;22;20490;-80
2022/11/30 04:13:37;;;;;;;33.07;17.17;;;2.60;99.90;;;;;;6302624;22;20450;-79
2022/11/30 04:16:05;;;;;;;36.37;16.93;;;2.80;99.90;;;;;;6302948;22;20451;-80
2022/11/30 04:18:34;;;;;;;35.07;17.27;;;2.70;99.90;;;;;;6302965;22;20418;-81
2022/11/30 04:21:01;;;;;;;35.17;16.27;;;2.60;99.90;;;;;;6302570;22;20443;-79
2022/11/30 04:23:30;;;;;;;38.77;18.33;;;2.50;99.90;;;;;;6302210;22;20436;-79
2022/11/30 04:25:57;;;;;;;37.40;15.70;;;2.50;99.90;;;;;;6302931;22;20505;-79
2022/11/30 04:28:24;;;;;;;40.67;18.10;;;2.60;99.90;;;;;;6302859;22;20499;-81
2022/11/30 04:30:53;;;;;;;26.67;14.30;;;2.50;99.90;;;;;;6302753;22;20488;-80
2022/11/30 04:33:21;;;;;;;28.33;15.17;;;3.10;99.90;;;;;;6302835;22;20530;-78
2022/11/30 04:35:50;;;;;;;34.50;17.00;;;2.70;99.90;;;;;;6302882;22;20404;-78
2022/11/30 04:38:17;;;;;;;32.20;16.03;;;2.50;99.90;;;;;;6302087;22;20720;-80
2022/11/30 04:40:45;;;;;;;30.53;15.03;;;2.50;99.90;;;;;;6302370;22;20405;-79
2022/11/30 04:43:13;;;;;;;38.07;16.40;;;2.70;99.90;;;;;;6302691;22;20408;-81
2022/11/30 04:45:40;;;;;;;29.10;16.17;;;2.60;99.90;;;;;;6302372;22;20439;-79
2022/11/30 04:48:09;;;;;;;34.00;16.77;;;2.80;99.90;;;;;;6302080;22;20440;-79
2022/11/30 04:50:36;;;;;;;36.00;17.70;;;2.70;99.90;;;;;;6301859;22;20432;-78
2022/11/30 04:53:03;;;;;;;32.10;15.07;;;2.90;99.90;;;;;;6301805;22;20969;-78
2022/11/30 04:55:30;;;;;;;33.87;16.30;;;2.70;99.90;;;;;;6301795;22;20789;-79
2022/11/30 04:57:57;;;;;;;28.63;14.63;;;2.70;99.90;;;;;;6301768;22;20756;-79
2022/11/30 05:00:25;;;;;;;31.17;14.40;;;2.60;99.90;;;;;;6301916;22;20491;-79
2022/11/30 05:02:52;;;;;;;28.73;15.90;;;2.60;99.90;;;;;;6301892;22;20968;-80
2022/11/30 05:05:31;;;;;;;31.97;17.80;;;2.60;99.90;;;;;;6302176;22;20481;-85
2022/11/30 05:08:00;;;;;;;31.63;16.37;;;2.50;99.90;;;;;;6302697;22;20409;-76
2022/11/30 05:10:43;;;;;;;28.70;16.40;;;2.50;99.90;;;;;;6302066;22;20432;-85
2022/11/30 05:13:34;;;;;;;28.80;14.53;;;2.60;99.90;;;;;;6302234;22;20421;-87
2022/11/30 05:16:12;;;;;;;38.27;18.17;;;2.90;99.90;;;;;;6316456;22;20435;-89
2022/11/30 05:21:27;;;;;;;32.57;15.90;;;2.40;99.90;;;;;;6306654;22;20411;-84
2022/11/30 05:23:54;;;;;;;29.50;15.47;;;2.50;99.90;;;;;;6302654;22;20790;-87
2022/11/30 05:26:21;;;;;;;30.70;14.77;;;2.70;99.90;;;;;;6301404;22;20532;-87
2022/11/30 05:28:48;;;;;;;32.53;15.53;;;3.40;99.90;;;;;;6302202;22;20404;-87
2022/11/30 05:31:16;;;;;;;30.70;16.70;;;2.70;99.90;;;;;;6302326;22;20444;-84
2022/11/30 05:33:43;;;;;;;27.43;16.60;;;2.90;99.90;;;;;;6302287;22;20493;-89
2022/11/30 05:36:10;;;;;;;22.83;14.20;;;2.90;99.90;;;;;;6301363;22;20474;-88
2022/11/30 05:38:39;;;;;;;23.80;14.90;;;2.70;99.90;;;;;;6301533;22;20503;-87
2022/11/30 05:41:06;;;;;;;28.83;13.77;;;3.00;99.90;;;;;;6301406;22;20456;-87
2022/11/30 05:43:33;;;;;;;27.70;14.30;;;3.10;99.90;;;;;;6301672;22;20423;-88
2022/11/30 05:46:03;;;;;;;27.90;14.87;;;2.70;99.90;;;;;;6296812;22;20494;-85
2022/11/30 05:48:30;;;;;;;33.73;16.97;;;3.30;99.90;;;;;;6300315;22;20473;-86
2022/11/30 05:51:05;;;;;;;27.83;16.60;;;2.80;99.90;;;;;;6301251;22;20481;-89
2022/11/30 05:53:32;;;;;;;25.20;14.60;;;2.80;99.90;;;;;;6300064;22;20411;-80
2022/11/30 05:56:03;;;;;;;25.30;14.57;;;2.80;99.90;;;;;;6300886;22;20463;-83
2022/11/30 05:58:30;;;;;;;27.03;14.03;;;2.70;99.90;;;;;;6300075;22;20393;-80
2022/11/30 06:00:57;;;;;;;24.40;13.47;;;2.70;99.90;;;;;;6300031;22;20579;-82
2022/11/30 06:03:24;;;;;;;29.60;14.40;;;2.70;99.90;;;;;;6300007;22;20691;-82
2022/11/30 06:05:51;;;;;;;25.27;14.97;;;2.80;99.90;;;;;;6301396;22;20404;-87
2022/11/30 06:08:18;;;;;;;27.70;13.43;;;2.80;99.90;;;;;;6302537;22;20420;-89
2022/11/30 06:10:45;;;;;;;33.70;13.50;;;3.40;99.90;;;;;;6300823;22;20436;-75
2022/11/30 06:13:14;;;;;;;28.57;15.17;;;2.90;99.90;;;;;;6301225;22;20408;-75
2022/11/30 06:15:44;;;;;;;21.57;14.10;;;2.90;99.90;;;;;;6300823;22;20396;-83
2022/11/30 06:18:13;;;;;;;25.00;12.83;;;2.80;99.90;;;;;;6301179;22;20408;-75
2022/11/30 06:20:45;;;;;;;27.17;12.93;;;2.80;99.90;;;;;;6300954;22;20409;-87
2022/11/30 06:23:12;;;;;;;24.80;14.30;;;2.90;99.90;;;;;;6306027;22;20403;-83
2022/11/30 06:25:39;;;;;;;25.70;13.10;;;2.80;99.90;;;;;;6304027;22;20484;-81
2022/11/30 06:28:09;;;;;;;25.50;12.70;;;3.20;99.90;;;;;;6306430;22;20432;-88
2022/11/30 06:30:37;;;;;;;21.20;12.10;;;2.90;99.90;;;;;;6310005;22;20450;-87
2022/11/30 06:35:55;;;;;;;23.60;13.73;;;3.00;99.90;;;;;;6304499;22;20468;-88
2022/11/30 06:38:22;;;;;;;21.10;12.07;;;3.40;99.90;;;;;;6314379;22;20384;-88
2022/11/30 06:40:51;;;;;;;30.50;13.53;;;3.00;99.90;;;;;;6320514;22;20408;-88
2022/11/30 06:43:18;;;;;;;27.70;14.37;;;2.90;99.90;;;;;;6324212;22;20404;-89
2022/11/30 06:45:47;;;;;;;23.37;13.93;;;3.00;99.90;;;;;;6324620;22;20404;-78
2022/11/30 06:48:15;;;;;;;23.33;11.27;;;3.10;99.90;;;;;;6314681;22;20436;-83
2022/11/30 06:50:42;;;;;;;23.17;12.60;;;3.00;99.90;;;;;;6303436;22;20756;-87
2022/11/30 06:53:09;;;;;;;21.83;11.57;;;3.30;99.90;;;;;;6303013;22;20436;-86
2022/11/30 06:55:38;;;;;;;22.23;13.53;;;3.00;99.90;;;;;;6300840;22;20535;-84
2022/11/30 06:58:09;;;;;;;25.40;13.10;;;3.10;99.90;;;;;;6301058;22;20890;-87
2022/11/30 07:00:38;;;;;;;25.97;12.87;;;3.10;99.90;;;;;;6301457;22;20408;-86
2022/11/30 07:03:07;;;;;;;32.50;13.20;;;3.20;99.90;;;;;;6302178;22;20416;-86
2022/11/30 07:05:39;;;;;;;20.30;12.87;;;3.30;99.90;;;;;;6301962;22;20412;-85
2022/11/30 07:08:06;;;;;;;28.80;13.20;;;2.90;99.90;;;;;;6301676;22;20579;-83
2022/11/30 07:10:33;;;;;;;23.93;13.90;;;2.90;99.90;;;;;;6300334;22;20960;-85
2022/11/30 07:13:00;;;;;;;26.00;11.97;;;3.20;99.90;;;;;;6299978;22;20404;-84
2022/11/30 07:15:27;;;;;;;20.63;11.53;;;3.10;99.90;;;;;;6300978;22;20405;-84
2022/11/30 07:17:54;;;;;;;22.07;14.17;;;3.30;99.90;;;;;;6302172;22;20473;-84
2022/11/30 07:20:22;;;;;;;22.27;11.80;;;2.90;99.90;;;;;;6308026;22;20496;-83
2022/11/30 07:22:49;;;;;;;20.20;11.60;;;3.10;99.90;;;;;;6315710;22;20409;-80
2022/11/30 07:28:01;;;;;;;22.37;11.90;;;3.20;99.90;;;;;;6301024;22;20432;-76
2022/11/30 07:30:30;;;;;;;26.10;12.60;;;3.20;99.90;;;;;;6300839;22;20810;-87
2022/11/30 07:32:57;;;;;;;24.50;11.73;;;3.20;99.90;;;;;;6300564;22;20400;-73
2022/11/30 07:35:26;;;;;;;19.67;11.70;;;3.60;99.90;;;;;;6300704;22;20895;-87
2022/11/30 07:37:52;;;;;;;24.27;12.30;;;3.60;99.90;;;;;;6302482;22;20408;-75
2022/11/30 07:40:19;;;;;;;26.30;11.50;;;3.60;99.90;;;;;;6300220;22;20408;-78
2022/11/30 07:42:46;;;;;;;18.90;10.43;;;3.30;99.90;;;;;;6306376;22;20761;-86
2022/11/30 07:45:14;;;;;;;27.60;13.30;;;3.40;99.90;;;;;;6319754;22;20463;-86
2022/11/30 07:47:43;;;;;;;23.40;13.20;;;3.30;99.90;;;;;;6316008;22;20477;-88
2022/11/30 07:50:11;;;;;;;27.10;13.37;;;3.20;99.90;;;;;;6302878;22;20442;-86
2022/11/30 07:52:40;;;;;;;24.53;13.50;;;3.10;99.90;;;;;;6302735;22;20444;-86
2022/11/30 07:55:08;;;;;;;26.50;13.03;;;2.50;99.90;;;;;;6303119;22;20416;-86
2022/11/30 07:57:36;;;;;;;23.70;14.07;;;3.20;99.90;;;;;;6303024;22;20444;-86
2022/11/30 08:00:04;;;;;;;25.07;13.50;;;3.30;99.90;;;;;;6302468;22;20412;-85
2022/11/30 08:02:34;;;;;;;28.90;13.13;;;3.40;99.90;;;;;;6302764;22;20435;-86
2022/11/30 08:05:03;;;;;;;27.57;13.10;;;3.50;99.90;;;;;;6302678;22;20412;-87
2022/11/30 08:07:30;;;;;;;27.07;13.73;;;3.50;99.90;;;;;;6302044;22;20443;-87
2022/11/30 08:09:59;;;;;;;28.70;14.67;;;2.80;99.90;;;;;;6302438;22;20819;-86
2022/11/30 08:12:26;;;;;;;24.00;14.27;;;3.50;99.90;;;;;;6302358;22;20451;-86
2022/11/30 08:14:53;;;;;;;19.73;13.37;;;3.40;99.90;;;;;;6302529;22;20423;-87
2022/11/30 08:17:20;;;;;;;27.20;14.90;;;3.50;99.90;;;;;;6301763;22;20416;-89
2022/11/30 08:19:47;;;;;;;26.23;14.77;;;3.60;99.90;;;;;;6302506;22;20811;-88
2022/11/30 08:22:15;;;;;;;26.17;15.27;;;3.50;99.90;;;;;;6303207;22;20419;-88
2022/11/30 08:24:43;;;;;;;24.00;14.40;;;3.40;99.90;;;;;;6302418;22;21027;-88
2022/11/30 08:27:11;;;;;;;26.70;14.90;;;3.60;99.90;;;;;;6303606;22;20529;-88
2022/11/30 08:29:38;;;;;;;22.73;13.70;;;3.60;99.90;;;;;;6303455;22;20440;-87
2022/11/30 08:32:05;;;;;;;29.53;16.90;;;4.00;99.90;;;;;;6303457;22;20405;-85
2022/11/30 08:34:32;;;;;;;23.90;13.67;;;3.40;99.90;;;;;;6302685;22;20495;-86
2022/11/30 08:36:59;;;;;;;23.40;14.10;;;3.40;99.90;;;;;;6302701;22;20504;-85
2022/11/30 08:39:30;;;;;;;26.50;13.53;;;3.50;99.90;;;;;;6301987;22;20439;-85
2022/11/30 08:41:57;;;;;;;33.00;15.37;;;3.60;99.90;;;;;;6303136;22;20725;-88
2022/11/30 08:44:26;;;;;;;24.47;13.47;;;3.50;99.90;;;;;;6302465;22;20408;-87
2022/11/30 08:46:53;;;;;;;26.80;16.40;;;3.50;99.90;;;;;;6302362;22;20404;-86
2022/11/30 08:49:21;;;;;;;26.43;13.23;;;3.80;99.90;;;;;;6301642;22;20756;-86
2022/11/30 08:51:49;;;;;;;21.67;13.20;;;3.60;99.90;;;;;;6301915;22;20408;-86
2022/11/30 08:54:16;;;;;;;29.30;16.70;;;3.90;99.90;;;;;;6302540;22;20412;-88
2022/11/30 08:56:43;;;;;;;28.70;14.93;;;3.40;99.90;;;;;;6302193;22;20689;-87
2022/11/30 08:59:10;;;;;;;27.60;14.10;;;3.40;99.90;;;;;;6301826;22;20404;-86
2022/11/30 09:01:41;;;;;;;26.07;16.17;;;3.50;99.90;;;;;;6302167;22;20404;-87
2022/11/30 09:04:08;;;;;;;27.00;14.73;;;3.50;99.90;;;;;;6302284;22;20393;-86
2022/11/30 09:06:35;;;;;;;28.60;15.00;;;3.40;99.90;;;;;;6302265;22;20405;-86
2022/11/30 09:09:02;;;;;;;38.43;16.57;;;3.30;99.90;;;;;;6301968;22;20440;-86
2022/11/30 09:11:31;;;;;;;28.60;15.63;;;3.40;99.90;;;;;;6301808;22;20416;-87
2022/11/30 09:13:59;;;;;;;41.20;14.37;;;3.40;99.90;;;;;;6301674;22;20927;-86
2022/11/30 09:16:27;;;;;;;24.70;14.20;;;3.60;99.90;;;;;;6301538;22;20757;-87
2022/11/30 09:18:56;;;;;;;30.70;16.47;;;3.40;99.90;;;;;;6302347;22;20413;-86
2022/11/30 09:21:24;;;;;;;28.00;17.00;;;3.70;99.90;;;;;;6301629;22;20913;-86
2022/11/30 09:23:52;;;;;;;22.50;13.73;;;3.50;99.90;;;;;;6301807;22;20440;-86
2022/11/30 09:26:22;;;;;;;24.30;13.80;;;3.80;99.90;;;;;;6301549;22;20595;-87
2022/11/30 09:28:49;;;;;;;22.73;14.10;;;3.80;99.90;;;;;;6301534;22;20429;-88
2022/11/30 09:31:18;;;;;;;29.20;14.70;;;3.80;99.90;;;;;;6301162;22;20918;-87
2022/11/30 09:33:46;;;;;;;28.53;15.27;;;4.00;99.90;;;;;;6302138;22;20458;-85
2022/11/30 09:36:16;;;;;;;30.90;17.37;;;3.80;99.90;;;;;;6301684;22;20488;-87
2022/11/30 09:38:43;;;;;;;31.50;13.70;;;4.20;99.90;;;;;;6301264;22;20431;-86
2022/11/30 09:41:31;;;;;;;21.13;12.33;;;3.80;99.90;;;;;;6301410;22;20494;-88
2022/11/30 09:44:06;;;;;;;30.57;15.07;;;3.90;99.90;;;;;;6302462;22;20935;-85
2022/11/30 09:46:38;;;;;;;26.50;15.43;;;3.70;99.90;;;;;;6301651;22;20415;-86
2022/11/30 09:49:09;;;;;;;22.33;13.53;;;3.60;99.90;;;;;;6301857;22;20464;-87
2022/11/30 09:51:44;;;;;;;29.00;15.37;;;3.70;99.90;;;;;;6302821;22;20549;-86
2022/11/30 09:54:16;;;;;;;28.40;14.73;;;3.70;99.90;;;;;;6302304;22;20722;-86
2022/11/30 09:56:44;;;;;;;22.53;13.00;;;3.70;99.90;;;;;;6302319;22;20871;-86
2022/11/30 09:59:19;;;;;;;23.87;13.37;;;3.80;99.90;;;;;;6301630;22;20404;-87
2022/11/30 10:01:47;;;;;;;25.60;14.27;;;3.80;99.90;;;;;;6301989;22;20636;-88
2022/11/30 10:04:22;;;;;;;22.23;13.33;;;4.00;99.90;;;;;;6301005;22;20427;-86
2022/11/30 10:07:01;;;;;;;23.87;11.03;;;4.10;99.90;;;;;;6301439;22;20457;-85
2022/11/30 10:09:38;;;;;;;21.00;11.57;;;4.10;99.90;;;;;;6302700;22;20522;-86
2022/11/30 10:12:09;;;;;;;20.00;12.07;;;4.10;99.90;;;;;;6310588;22;20494;-86
2022/11/30 10:14:58;;;;;;;20.37;11.23;;;4.10;99.90;;;;;;6308867;22;20395;-87
2022/11/30 10:17:37;;;;;;;22.10;10.30;;;4.00;99.90;;;;;;6276944;22;20409;-87
2022/11/30 10:20:23;;;;;;;18.73;10.17;;;4.40;99.90;;;;;;6300130;22;20408;-87
2022/11/30 10:23:09;;;;;;;22.50;11.33;;;4.30;99.90;;;;;;6301303;22;20416;-84
2022/11/30 10:25:46;;;;;;;21.50;11.40;;;4.20;99.90;;;;;;6300943;22;20560;-86
2022/11/30 10:28:18;;;;;;;18.50;10.40;;;4.20;99.90;;;;;;6300606;22;20436;-85
2022/11/30 10:30:48;;;;;;;16.70;11.03;;;4.60;99.90;;;;;;6300928;22;20410;-86
2022/11/30 10:33:18;;;;;;;25.43;11.63;;;4.70;99.90;;;;;;6300725;22;20991;-86
2022/11/30 10:35:51;;;;;;;20.30;10.60;;;4.50;99.90;;;;;;6300734;22;20511;-85
2022/11/30 10:38:24;;;;;;;19.50;11.13;;;4.30;99.90;;;;;;6300779;22;20780;-85
2022/11/30 10:40:56;;;;;;;26.87;11.80;;;4.40;99.90;;;;;;6301204;22;20481;-87
2022/11/30 10:43:29;;;;;;;21.37;12.80;;;4.10;99.90;;;;;;6301396;22;20420;-85
2022/11/30 10:45:56;;;;;;;18.07;10.80;;;4.00;99.90;;;;;;6300691;22;20416;-86
2022/11/30 10:48:29;;;;;;;17.93;11.90;;;4.20;99.90;;;;;;6300314;22;20581;-84
2022/11/30 10:50:56;;;;;;;19.47;11.20;;;4.20;99.90;;;;;;6301238;22;20793;-85
2022/11/30 10:53:25;;;;;;;23.03;12.60;;;4.20;99.90;;;;;;6300049;22;20740;-86
2022/11/30 10:56:01;;;;;;;16.40;10.27;;;4.50;99.90;;;;;;6300575;22;20454;-85
2022/11/30 10:58:31;;;;;;;22.40;10.70;;;4.50;99.90;;;;;;6300465;22;20414;-85
2022/11/30 11:01:05;;;;;;;16.20;10.00;;;4.20;99.90;;;;;;6300635;22;20420;-85
2022/11/30 11:03:33;;;;;;;21.20;11.07;;;4.20;99.90;;;;;;6300527;22;20397;-85
2022/11/30 11:06:07;;;;;;;16.23;10.43;;;4.30;99.90;;;;;;6300444;22;20420;-87
2022/11/30 11:08:35;;;;;;;18.10;11.50;;;4.40;99.90;;;;;;6300051;22;20443;-86
2022/11/30 11:11:04;;;;;;;23.10;10.83;;;4.40;99.90;;;;;;6300234;22;20812;-80
2022/11/30 11:13:38;;;;;;;19.47;11.80;;;4.40;99.90;;;;;;6300462;22;20416;-86
2022/11/30 11:16:07;;;;;;;25.07;12.20;;;4.40;99.90;;;;;;6300934;22;20749;-85
2022/11/30 11:18:35;;;;;;;14.60;10.20;;;4.30;99.90;;;;;;6302948;22;20482;-86
2022/11/30 11:21:05;;;;;;;22.23;11.70;;;4.20;99.90;;;;;;6303812;22;20473;-85
2022/11/30 11:23:37;;;;;;;17.50;9.67;;;4.20;99.90;;;;;;6302699;22;20439;-86
2022/11/30 11:26:05;;;;;;;13.07;9.60;;;4.30;99.90;;;;;;6302688;22;20936;-88
2022/11/30 11:28:34;;;;;;;17.30;8.20;;;4.40;99.90;;;;;;6303522;22;20495;-86
2022/11/30 11:31:16;;;;;;;12.37;8.40;;;4.50;99.90;;;;;;6308099;22;20435;-85
2022/11/30 11:33:51;;;;;;;13.50;8.50;;;4.60;99.90;;;;;;6302164;22;20491;-87
2022/11/30 11:36:26;;;;;;;18.57;9.10;;;4.50;99.90;;;;;;6303082;22;20422;-85
2022/11/30 11:38:55;;;;;;;15.07;8.93;;;4.80;99.90;;;;;;6302153;22;20933;-84
2022/11/30 11:41:27;;;;;;;15.43;9.37;;;4.70;99.90;;;;;;6302004;22;20405;-86
2022/11/30 11:44:01;;;;;;;12.07;7.63;;;4.80;99.90;;;;;;6302249;22;20473;-86
2022/11/30 11:46:29;;;;;;;18.87;9.73;;;5.40;99.90;;;;;;6302039;22;20392;-87
2022/11/30 11:48:59;;;;;;;12.83;7.67;;;5.10;99.90;;;;;;6302910;22;20479;-86
2022/11/30 11:51:32;;;;;;;10.67;6.90;;;4.70;99.90;;;;;;6302785;22;20412;-85
2022/11/30 11:54:06;;;;;;;13.73;7.83;;;5.00;99.90;;;;;;6302827;22;21005;-86
2022/11/30 11:56:35;;;;;;;9.53;7.83;;;5.00;99.90;;;;;;6302761;22;20419;-86
2022/11/30 11:59:13;;;;;;;16.13;9.23;;;4.90;99.90;;;;;;6301717;22;20676;-87
2022/11/30 12:01:55;;;;;;;17.37;10.30;;;5.10;99.90;;;;;;6301708;22;20644;-86
2022/11/30 12:04:42;;;;;;;13.17;8.57;;;5.00;99.90;;;;;;6301847;22;20436;-86
2022/11/30 12:07:17;;;;;;;14.70;9.73;;;4.40;99.90;;;;;;6302255;22;20416;-84
2022/11/30 12:09:55;;;;;;;15.83;10.17;;;4.70;99.90;;;;;;6302454;22;20551;-85
2022/11/30 12:12:22;;;;;;;15.40;9.40;;;4.70;99.90;;;;;;6301933;22;20417;-87
2022/11/30 12:14:49;;;;;;;18.40;11.57;;;4.70;99.90;;;;;;6302890;22;20405;-85
2022/11/30 12:17:30;;;;;;;15.20;10.03;;;4.70;99.90;;;;;;6301587;22;20492;-85
2022/11/30 12:20:03;;;;;;;15.83;9.87;;;4.90;99.90;;;;;;6301437;22;20729;-87
2022/11/30 12:22:51;;;;;;;18.27;9.80;;;4.70;99.90;;;;;;6301883;22;20384;-86
2022/11/30 12:25:26;;;;;;;23.10;11.30;;;4.50;99.90;;;;;;6302315;22;20440;-87
2022/11/30 12:28:06;;;;;;;17.00;10.60;;;4.70;99.90;;;;;;6302182;22;20448;-87
2022/11/30 12:30:43;;;;;;;22.57;11.57;;;4.60;99.90;;;;;;6302720;22;20536;-79
2022/11/30 12:33:17;;;;;;;24.90;12.27;;;4.60;99.90;;;;;;6301014;22;20424;-71
2022/11/30 12:35:53;;;;;;;17.40;10.13;;;4.40;99.90;;;;;;6301294;22;20443;-72
2022/11/30 12:38:32;;;;;;;19.97;9.57;;;4.20;99.90;;;;;;6301407;22;20459;-83
2022/11/30 12:41:11;;;;;;;29.47;12.07;;;4.40;99.90;;;;;;6302052;22;20392;-74
2022/11/30 12:43:48;;;;;;;20.57;11.63;;;4.40;99.90;;;;;;6300448;22;20425;-74
2022/11/30 12:46:22;;;;;;;23.63;12.37;;;4.30;99.90;;;;;;6301197;22;20431;-73
2022/11/30 12:49:02;;;;;;;25.70;13.00;;;4.20;99.90;;;;;;6301396;22;20886;-74
2022/11/30 12:51:34;;;;;;;23.50;12.10;;;4.10;99.90;;;;;;6300696;22;20476;-71
2022/11/30 12:54:09;;;;;;;23.10;12.73;;;4.20;99.90;;;;;;6301335;22;20416;-72
2022/11/30 12:56:42;;;;;;;29.33;12.53;;;4.20;99.90;;;;;;6301250;22;20393;-74
2022/11/30 12:59:20;;;;;;;22.00;12.37;;;4.20;99.90;;;;;;6301226;22;20471;-73